createdAt,value
2022-09-16T00:00:51.645Z,0.80
2022-09-16T00:03:18.899Z,0.70
2022-09-16T00:05:50.463Z,1.05
2022-09-16T00:08:18.016Z,0.73
2022-09-16T00:10:44.541Z,0.90
2022-09-16T00:13:12.327Z,0.60
2022-09-16T00:15:43.765Z,1.20
2022-09-16T00:18:11.349Z,0.60
2022-09-16T00:20:49.377Z,0.90
2022-09-16T00:23:16.297Z,0.75
2022-09-16T00:25:42.800Z,0.98
2022-09-16T00:28:09.529Z,1.10
2022-09-16T00:30:36.376Z,0.60
2022-09-16T00:33:02.913Z,0.70
2022-09-16T00:35:29.465Z,1.15
2022-09-16T00:37:55.915Z,0.90
2022-09-16T00:40:23.024Z,1.05
2022-09-16T00:42:49.501Z,1.10
2022-09-16T00:45:19.618Z,1.27
2022-09-16T00:47:50.643Z,1.20
2022-09-16T00:50:38.439Z,1.00
2022-09-16T00:53:06.865Z,1.02
2022-09-16T00:55:35.722Z,1.00
2022-09-16T00:58:32.935Z,1.08
2022-09-16T01:00:59.522Z,1.10
2022-09-16T01:03:26.455Z,0.98
2022-09-16T01:05:52.910Z,1.00
2022-09-16T01:08:19.417Z,0.93
2022-09-16T01:10:45.936Z,1.00
2022-09-16T01:13:14.200Z,1.25
2022-09-16T01:16:12.737Z,0.93
2022-09-16T01:19:02.491Z,0.98
2022-09-16T01:22:28.351Z,0.95
2022-09-16T01:24:59.995Z,0.90
2022-09-16T01:27:34.185Z,1.05
2022-09-16T01:30:09.270Z,0.80
2022-09-16T01:33:05.185Z,0.80
2022-09-16T01:36:00.402Z,1.00
2022-09-16T01:38:53.386Z,1.20
2022-09-16T01:41:48.857Z,1.05
2022-09-16T01:44:26.882Z,1.17
2022-09-16T01:47:03.369Z,1.10
2022-09-16T01:49:40.605Z,1.10
2022-09-16T01:52:31.713Z,0.90
2022-09-16T01:55:04.454Z,0.95
2022-09-16T01:57:38.476Z,0.75
2022-09-16T02:00:11.088Z,0.77
2022-09-16T02:03:01.529Z,1.80
2022-09-16T02:05:33.689Z,0.90
2022-09-16T02:08:06.119Z,1.05
2022-09-16T02:10:38.291Z,0.80
2022-09-16T02:13:17.993Z,0.77
2022-09-16T02:15:48.944Z,0.80
2022-09-16T02:18:19.269Z,0.70
2022-09-16T02:20:47.063Z,0.65
2022-09-16T02:23:20.931Z,0.68
2022-09-16T02:25:49.208Z,0.70
2022-09-16T02:28:29.882Z,1.02
2022-09-16T02:30:58.446Z,0.77
2022-09-16T02:33:31.084Z,0.70
2022-09-16T02:35:57.808Z,0.70
2022-09-16T02:38:27.108Z,0.63
2022-09-16T02:40:59.701Z,0.82
2022-09-16T02:43:26.742Z,0.90
2022-09-16T02:46:04.576Z,0.90
2022-09-16T02:48:53.961Z,1.00
2022-09-16T02:51:31.923Z,1.35
2022-09-16T02:54:32.444Z,0.90
2022-09-16T02:56:59.211Z,1.02
2022-09-16T02:59:25.832Z,1.30
2022-09-16T03:01:52.656Z,1.08
2022-09-16T03:04:20.511Z,1.10
2022-09-16T03:06:47.550Z,0.73
2022-09-16T03:09:15.622Z,0.90
2022-09-16T03:12:04.082Z,1.00
2022-09-16T03:14:54.121Z,0.90
2022-09-16T03:17:33.525Z,1.02
2022-09-16T03:20:10.941Z,1.20
2022-09-16T03:22:51.446Z,1.20
2022-09-16T03:25:32.815Z,1.27
2022-09-16T03:28:10.051Z,1.58
2022-09-16T03:30:43.963Z,1.10
2022-09-16T03:33:18.259Z,1.30
2022-09-16T03:35:47.194Z,1.48
2022-09-16T03:38:13.902Z,1.30
2022-09-16T03:40:42.511Z,1.10
2022-09-16T03:43:13.521Z,1.33
2022-09-16T03:45:42.904Z,1.35
2022-09-16T03:48:10.939Z,1.20
2022-09-16T03:50:37.457Z,1.10
2022-09-16T03:53:04.037Z,1.17
2022-09-16T03:55:30.640Z,1.02
2022-09-16T03:57:57.239Z,1.30
2022-09-16T04:00:23.713Z,0.98
2022-09-16T04:02:50.350Z,1.42
2022-09-16T04:05:16.967Z,1.20
2022-09-16T04:07:43.442Z,1.27
2022-09-16T04:10:12.406Z,1.10
2022-09-16T04:12:39.013Z,1.20
2022-09-16T04:15:05.957Z,1.08
2022-09-16T04:17:33.127Z,1.00
2022-09-16T04:19:59.888Z,1.30
2022-09-16T04:22:29.773Z,1.10
2022-09-16T04:24:56.743Z,1.08
2022-09-16T04:27:23.662Z,1.40
2022-09-16T04:29:50.115Z,1.30
2022-09-16T04:32:16.689Z,1.30
2022-09-16T04:34:43.344Z,1.55
2022-09-16T04:37:09.809Z,1.90
2022-09-16T04:39:36.287Z,1.60
2022-09-16T04:42:03.088Z,1.60
2022-09-16T04:44:30.279Z,1.35
2022-09-16T04:46:57.023Z,1.25
2022-09-16T04:49:23.665Z,1.73
2022-09-16T04:51:52.013Z,0.90
2022-09-16T04:54:18.567Z,1.13
2022-09-16T04:56:45.085Z,1.23
2022-09-16T04:59:11.528Z,1.10
2022-09-16T05:01:39.395Z,1.48
2022-09-16T05:04:07.525Z,1.48
2022-09-16T05:06:36.718Z,1.13
2022-09-16T05:09:03.825Z,1.60
2022-09-16T05:11:33.884Z,1.65
2022-09-16T05:14:05.744Z,1.27
2022-09-16T05:16:32.957Z,1.33
2022-09-16T05:19:00.636Z,1.40
2022-09-16T05:21:28.158Z,1.60
2022-09-16T05:23:55.937Z,1.63
2022-09-16T05:26:24.482Z,1.98
2022-09-16T05:28:51.068Z,2.13
2022-09-16T05:31:18.748Z,1.80
2022-09-16T05:33:58.355Z,2.03
2022-09-16T05:36:25.992Z,1.98
2022-09-16T05:39:18.392Z,2.05
2022-09-16T05:41:39.436Z,2.20
2022-09-16T05:44:08.755Z,1.88
2022-09-16T05:46:35.526Z,1.90
2022-09-16T05:49:02.398Z,1.85
2022-09-16T05:51:28.842Z,1.88
2022-09-16T05:53:55.894Z,1.83
2022-09-16T05:56:25.895Z,1.33
2022-09-16T05:58:59.967Z,1.40
2022-09-16T06:01:29.502Z,1.90
2022-09-16T06:03:56.423Z,1.75
2022-09-16T06:06:24.207Z,1.50
2022-09-16T06:08:51.914Z,1.73
2022-09-16T06:11:18.684Z,1.30
2022-09-16T06:13:45.134Z,1.45
2022-09-16T06:16:11.843Z,1.65
2022-09-16T06:18:38.445Z,1.45
2022-09-16T06:21:07.570Z,1.08
2022-09-16T06:23:34.830Z,1.30
2022-09-16T06:26:16.891Z,1.20
2022-09-16T06:28:44.216Z,1.20
2022-09-16T06:31:13.852Z,1.38
2022-09-16T06:33:40.893Z,1.38
2022-09-16T06:36:16.457Z,1.35
2022-09-16T06:38:43.437Z,1.42
2022-09-16T06:41:11.668Z,1.38
2022-09-16T06:43:38.622Z,1.40
2022-09-16T06:46:19.181Z,1.55
2022-09-16T06:48:52.250Z,1.50
2022-09-16T06:51:27.914Z,1.90
2022-09-16T06:53:59.179Z,1.23
2022-09-16T06:56:25.775Z,1.50
2022-09-16T06:58:53.342Z,1.73
2022-09-16T07:01:22.024Z,1.67
2022-09-16T07:03:50.745Z,1.35
2022-09-16T07:06:18.867Z,1.33
2022-09-16T07:08:45.933Z,1.30
2022-09-16T07:11:19.248Z,1.20
2022-09-16T07:13:47.235Z,1.63
2022-09-16T07:16:17.056Z,1.65
2022-09-16T07:18:43.754Z,1.52
2022-09-16T07:21:13.842Z,1.52
2022-09-16T07:23:41.590Z,1.60
2022-09-16T07:26:14.531Z,1.50
2022-09-16T07:28:42.450Z,1.50
2022-09-16T07:31:14.830Z,1.23
2022-09-16T07:33:43.257Z,1.27
2022-09-16T07:36:12.161Z,1.45
2022-09-16T07:38:38.797Z,1.27
2022-09-16T07:41:11.371Z,1.65
2022-09-16T07:43:39.008Z,1.10
2022-09-16T07:46:05.946Z,1.10
2022-09-16T07:48:35.221Z,1.00
2022-09-16T07:51:04.906Z,1.00
2022-09-16T07:53:32.168Z,1.10
2022-09-16T07:56:03.802Z,0.93
2022-09-16T07:58:30.568Z,0.90
2022-09-16T08:01:03.361Z,1.00
2022-09-16T08:03:31.074Z,1.17
2022-09-16T08:06:06.165Z,1.10
2022-09-16T08:08:33.269Z,0.73
2022-09-16T08:11:00.753Z,0.70
2022-09-16T08:13:29.235Z,0.70
2022-09-16T08:15:56.262Z,0.60
2022-09-16T08:18:22.741Z,0.75
2022-09-16T08:20:49.227Z,1.40
2022-09-16T08:23:15.666Z,0.60
2022-09-16T08:25:42.518Z,0.73
2022-09-16T08:28:16.378Z,0.70
2022-09-16T08:30:43.980Z,0.50
2022-09-16T08:33:10.731Z,0.65
2022-09-16T08:35:37.203Z,1.30
2022-09-16T08:38:03.905Z,0.60
2022-09-16T08:40:34.681Z,0.50
2022-09-16T08:43:38.945Z,0.85
2022-09-16T08:46:20.835Z,0.60
2022-09-16T08:49:15.852Z,0.63
2022-09-16T08:51:43.013Z,0.70
2022-09-16T08:54:27.334Z,0.80
2022-09-16T08:57:00.375Z,0.80
2022-09-16T08:59:29.017Z,0.70
2022-09-16T09:02:19.093Z,0.60
2022-09-16T09:04:45.775Z,0.60
2022-09-16T09:07:52.861Z,0.70
2022-09-16T09:10:24.788Z,0.90
2022-09-16T09:13:28.954Z,0.70
2022-09-16T09:16:07.289Z,1.02
2022-09-16T09:18:42.096Z,0.90
2022-09-16T09:21:27.106Z,0.90
2022-09-16T09:24:17.052Z,0.80
2022-09-16T09:26:48.845Z,0.85
2022-09-16T09:29:40.647Z,0.50
2022-09-16T09:32:38.328Z,0.75
2022-09-16T09:36:02.787Z,0.68
2022-09-16T09:38:40.012Z,0.60
2022-09-16T09:41:14.671Z,0.73
2022-09-16T09:43:51.830Z,0.75
2022-09-16T09:46:25.116Z,0.60
2022-09-16T09:49:13.767Z,0.95
2022-09-16T09:51:55.635Z,0.70
2022-09-16T09:54:25.121Z,1.13
2022-09-16T09:56:55.494Z,0.70
2022-09-16T09:59:54.216Z,0.70
2022-09-16T10:02:22.231Z,0.60
2022-09-16T10:04:48.979Z,0.90
2022-09-16T10:07:19.344Z,0.60
2022-09-16T10:09:53.714Z,0.65
2022-09-16T10:12:31.717Z,0.52
2022-09-16T10:14:58.453Z,0.60
2022-09-16T10:17:25.905Z,1.08
2022-09-16T10:20:06.562Z,0.55
2022-09-16T10:22:35.011Z,0.63
2022-09-16T10:25:24.314Z,0.80
2022-09-16T10:27:56.397Z,0.55
2022-09-16T10:32:56.726Z,0.60
2022-09-16T10:35:28.224Z,0.80
2022-09-16T10:38:04.038Z,1.02
2022-09-16T10:40:31.120Z,0.75
2022-09-16T10:43:03.961Z,0.60
2022-09-16T10:45:34.042Z,0.60
2022-09-16T10:48:05.034Z,0.80
2022-09-16T10:50:33.972Z,0.70
2022-09-16T10:53:00.415Z,0.60
2022-09-16T10:55:30.158Z,0.90
2022-09-16T10:58:14.971Z,0.55
2022-09-16T11:01:01.266Z,0.52
2022-09-16T11:03:41.045Z,0.60
2022-09-16T11:06:32.386Z,1.10
2022-09-16T11:09:29.980Z,0.63
2022-09-16T11:12:25.182Z,0.70
2022-09-16T11:15:09.180Z,0.90
2022-09-16T11:17:51.779Z,0.77
2022-09-16T11:20:36.874Z,0.65
2022-09-16T11:23:14.441Z,0.75
2022-09-16T11:25:57.001Z,0.85
2022-09-16T11:28:55.323Z,0.60
2022-09-16T11:31:55.204Z,0.70
2022-09-16T11:34:59.281Z,0.80
2022-09-16T11:37:35.194Z,0.80
2022-09-16T11:40:21.119Z,0.93
2022-09-16T11:43:21.344Z,0.90
2022-09-16T11:45:56.437Z,0.80
2022-09-16T11:48:47.999Z,0.90
2022-09-16T11:51:41.730Z,0.88
2022-09-16T11:54:25.027Z,0.60
2022-09-16T11:56:59.782Z,0.52
2022-09-16T11:59:40.185Z,0.80
2022-09-16T12:02:24.505Z,0.80
2022-09-16T12:05:00.759Z,0.60
2022-09-16T12:07:37.691Z,0.80
2022-09-16T12:10:13.184Z,0.63
2022-09-16T12:12:44.356Z,0.50
2022-09-16T12:15:41.957Z,0.40
2022-09-16T12:18:17.622Z,0.73
2022-09-16T12:20:47.773Z,0.70
2022-09-16T12:23:18.667Z,0.60
2022-09-16T12:26:01.078Z,0.70
2022-09-16T12:28:45.023Z,0.60
2022-09-16T12:31:21.694Z,0.52
2022-09-16T12:33:56.112Z,0.40
2022-09-16T12:36:28.396Z,0.60
2022-09-16T12:38:58.164Z,0.70
2022-09-16T12:41:37.426Z,0.60
2022-09-16T12:44:41.221Z,0.73
2022-09-16T12:47:16.789Z,0.50
2022-09-16T12:50:20.902Z,0.50
2022-09-16T12:53:11.166Z,0.70
2022-09-16T12:55:48.516Z,0.47
2022-09-16T12:58:17.995Z,0.47
2022-09-16T13:00:58.928Z,0.70
2022-09-16T13:03:27.774Z,0.60
2022-09-16T13:05:55.253Z,0.65
2022-09-16T13:08:29.946Z,0.70
2022-09-16T13:11:38.949Z,0.82
2022-09-16T13:13:55.603Z,0.80
2022-09-16T13:16:36.942Z,0.50
2022-09-16T13:19:38.755Z,0.85
2022-09-16T13:22:12.436Z,0.60
2022-09-16T13:24:55.028Z,0.63
2022-09-16T13:27:32.242Z,0.57
2022-09-16T13:30:12.921Z,0.40
2022-09-16T13:32:50.251Z,0.60
2022-09-16T13:35:16.618Z,0.60
2022-09-16T13:37:43.499Z,0.55
2022-09-16T13:40:17.274Z,0.63
2022-09-16T13:42:43.755Z,0.70
2022-09-16T13:45:40.765Z,0.80
2022-09-16T13:48:13.531Z,0.63
2022-09-16T13:50:43.752Z,0.55
2022-09-16T13:53:16.537Z,0.80
2022-09-16T13:55:43.192Z,0.55
2022-09-16T13:58:18.484Z,0.82
2022-09-16T14:01:14.294Z,0.63
2022-09-16T14:03:55.802Z,0.80
2022-09-16T14:06:40.272Z,0.80
2022-09-16T14:09:16.685Z,0.40
2022-09-16T14:11:56.870Z,0.60
2022-09-16T14:17:27.613Z,0.40
2022-09-16T14:19:58.354Z,0.40
2022-09-16T14:22:27.423Z,0.60
2022-09-16T14:25:05.860Z,0.50
2022-09-16T14:27:39.790Z,0.75
2022-09-16T14:30:14.161Z,0.63
2022-09-16T14:32:40.931Z,0.50
2022-09-16T14:35:15.063Z,0.40
2022-09-16T14:37:44.843Z,0.75
2022-09-16T14:40:16.881Z,0.70
2022-09-16T14:42:51.988Z,1.02
2022-09-16T14:45:20.083Z,0.52
2022-09-16T14:47:51.692Z,0.90
2022-09-16T14:50:24.625Z,0.80
2022-09-16T14:53:01.953Z,0.50
2022-09-16T14:55:31.071Z,0.70
2022-09-16T14:57:58.526Z,0.60
2022-09-16T15:00:37.298Z,0.93
2022-09-16T15:03:22.805Z,0.60
2022-09-16T15:05:49.380Z,0.40
2022-09-16T15:12:46.603Z,1.08
2022-09-16T15:13:30.954Z,0.60
2022-09-16T15:16:11.393Z,0.50
2022-09-16T15:18:39.838Z,0.82
2022-09-16T15:21:09.621Z,0.80
2022-09-16T15:23:38.378Z,0.70
2022-09-16T15:26:12.667Z,0.73
2022-09-16T15:28:50.281Z,0.80
2022-09-16T15:31:28.698Z,0.50
2022-09-16T15:33:55.800Z,0.80
2022-09-16T15:36:37.086Z,0.80
2022-09-16T15:39:04.559Z,1.00
2022-09-16T15:41:31.228Z,0.70
2022-09-16T15:43:58.729Z,0.60
2022-09-16T15:46:25.211Z,1.00
2022-09-16T15:48:55.740Z,0.77
2022-09-16T15:51:43.623Z,0.82
2022-09-16T15:54:32.733Z,0.77
2022-09-16T15:57:11.898Z,0.70
2022-09-16T15:59:44.033Z,0.65
2022-09-16T16:02:31.025Z,0.60
2022-09-16T16:05:12.754Z,0.60
2022-09-16T16:07:54.387Z,0.43
2022-09-16T16:10:31.374Z,0.70
2022-09-16T16:12:59.916Z,0.73
2022-09-16T16:15:33.634Z,0.95
2022-09-16T16:18:03.243Z,0.80
2022-09-16T16:20:32.596Z,0.80
2022-09-16T16:22:58.986Z,0.50
2022-09-16T16:25:25.383Z,1.10
2022-09-16T16:27:51.906Z,1.35
2022-09-16T16:30:19.220Z,0.70
2022-09-16T16:32:46.145Z,0.85
2022-09-16T16:35:12.865Z,1.23
2022-09-16T16:37:47.626Z,1.25
2022-09-16T16:40:15.218Z,0.80
2022-09-16T16:42:43.463Z,0.73
2022-09-16T16:45:12.345Z,0.70
2022-09-16T16:47:39.456Z,0.70
2022-09-16T16:50:06.128Z,0.50
2022-09-16T16:52:32.570Z,0.43
2022-09-16T16:54:58.949Z,0.60
2022-09-16T16:57:25.344Z,0.80
2022-09-16T16:59:52.172Z,0.70
2022-09-16T17:02:18.622Z,0.68
2022-09-16T17:04:45.061Z,0.75
2022-09-16T17:07:27.925Z,0.57
2022-09-16T17:09:55.779Z,0.80
2022-09-16T17:12:22.205Z,0.47
2022-09-16T17:14:48.592Z,0.70
2022-09-16T17:17:14.993Z,0.63
2022-09-16T17:19:41.469Z,0.60
2022-09-16T17:22:07.925Z,0.70
2022-09-16T17:24:34.879Z,0.45
2022-09-16T17:27:01.495Z,0.63
2022-09-16T17:29:27.878Z,0.73
2022-09-16T17:31:56.833Z,0.85
2022-09-16T17:34:23.261Z,0.90
2022-09-16T17:36:49.740Z,0.88
2022-09-16T17:39:18.747Z,0.70
2022-09-16T17:41:46.489Z,0.65
2022-09-16T17:44:13.560Z,0.82
2022-09-16T17:46:41.110Z,0.90
2022-09-16T17:49:12.994Z,0.80
2022-09-16T17:51:39.476Z,1.08
2022-09-16T17:54:06.709Z,1.00
2022-09-16T17:56:33.149Z,0.95
2022-09-16T17:58:59.614Z,0.93
2022-09-16T18:01:26.783Z,1.08
2022-09-16T18:03:55.284Z,0.80
2022-09-16T18:06:22.650Z,0.60
2022-09-16T18:08:50.058Z,0.32
2022-09-16T18:11:17.360Z,0.80
2022-09-16T18:13:44.041Z,0.65
2022-09-16T18:16:16.813Z,0.45
2022-09-16T18:18:44.513Z,0.40
2022-09-16T18:21:16.573Z,0.60
2022-09-16T18:23:43.417Z,0.70
2022-09-16T18:26:11.865Z,0.93
2022-09-16T18:29:05.195Z,0.70
2022-09-16T18:31:27.112Z,0.77
2022-09-16T18:33:54.907Z,0.70
2022-09-16T18:36:25.147Z,0.80
2022-09-16T18:38:56.969Z,0.60
2022-09-16T18:41:26.101Z,0.52
2022-09-16T18:43:58.522Z,0.63
2022-09-16T18:46:29.869Z,0.50
2022-09-16T18:48:56.625Z,1.15
2022-09-16T18:51:27.951Z,0.80
2022-09-16T18:53:57.573Z,0.90
2022-09-16T18:56:25.525Z,0.90
2022-09-16T18:59:17.215Z,0.85
2022-09-16T19:01:39.760Z,0.80
2022-09-16T19:04:09.475Z,0.90
2022-09-16T19:06:43.176Z,0.82
2022-09-16T19:09:12.044Z,1.05
2022-09-16T19:11:38.844Z,0.90
2022-09-16T19:14:06.584Z,1.20
2022-09-16T19:16:33.152Z,0.98
2022-09-16T19:19:00.849Z,0.68
2022-09-16T19:21:27.925Z,0.77
2022-09-16T19:24:00.112Z,0.82
2022-09-16T19:26:28.820Z,0.70
2022-09-16T19:28:55.832Z,0.90
2022-09-16T19:31:22.400Z,0.70
2022-09-16T19:33:48.971Z,0.60
2022-09-16T19:36:19.673Z,0.70
2022-09-16T19:38:47.097Z,0.68
2022-09-16T19:41:13.878Z,0.90
2022-09-16T19:43:40.569Z,0.93
2022-09-16T19:46:09.231Z,0.60
2022-09-16T19:48:37.392Z,0.85
2022-09-16T19:51:05.624Z,0.57
2022-09-16T19:53:32.191Z,1.00
2022-09-16T19:56:04.756Z,0.90
2022-09-16T19:58:33.138Z,0.55
2022-09-16T20:01:00.276Z,0.90
2022-09-16T20:03:29.334Z,0.45
2022-09-16T20:06:10.096Z,0.60
2022-09-16T20:08:37.981Z,0.93
2022-09-16T20:11:17.162Z,0.70
2022-09-16T20:13:51.627Z,0.82
2022-09-16T20:16:19.209Z,0.75
2022-09-16T20:18:45.696Z,0.90
2022-09-16T20:21:17.973Z,0.55
2022-09-16T20:23:45.092Z,0.90
2022-09-16T20:26:14.871Z,1.08
2022-09-16T20:28:42.794Z,0.85
2022-09-16T20:31:13.599Z,0.75
2022-09-16T20:33:40.740Z,1.30
2022-09-16T20:36:09.875Z,1.17
2022-09-16T20:38:37.652Z,0.80
2022-09-16T20:41:09.539Z,0.60
2022-09-16T20:43:36.195Z,0.50
2022-09-16T20:46:09.567Z,0.93
2022-09-16T20:48:36.155Z,0.70
2022-09-16T20:51:07.972Z,0.70
2022-09-16T20:53:36.159Z,0.77
2022-09-16T20:56:04.620Z,0.50
2022-09-16T20:58:31.070Z,0.50
2022-09-16T21:01:10.659Z,0.70
2022-09-16T21:03:37.111Z,0.77
2022-09-16T21:06:05.620Z,0.80
2022-09-16T21:08:36.937Z,0.63
2022-09-16T21:11:12.529Z,0.60
2022-09-16T21:13:41.242Z,0.70
2022-09-16T21:16:09.348Z,0.70
2022-09-16T21:18:35.801Z,0.98
2022-09-16T21:21:08.428Z,1.08
2022-09-16T21:23:35.318Z,1.08
2022-09-16T21:26:12.472Z,0.70
2022-09-16T21:28:39.053Z,0.50
2022-09-16T21:31:07.336Z,0.70
2022-09-16T21:33:38.116Z,0.70
2022-09-16T21:36:05.661Z,0.98
2022-09-16T21:38:33.045Z,0.60
2022-09-16T21:41:02.318Z,0.60
2022-09-16T21:43:45.251Z,0.73
2022-09-16T21:46:13.104Z,0.60
2022-09-16T21:48:39.630Z,0.63
2022-09-16T21:51:08.098Z,0.60
2022-09-16T21:53:37.209Z,1.15
2022-09-16T21:56:08.515Z,0.82
2022-09-16T21:58:35.294Z,0.90
2022-09-16T22:01:11.726Z,0.70
2022-09-16T22:03:39.724Z,0.93
2022-09-16T22:06:07.321Z,0.77
2022-09-16T22:08:33.850Z,0.80
2022-09-16T22:11:01.945Z,0.50
2022-09-16T22:13:30.293Z,0.55
2022-09-16T22:15:57.083Z,0.73
2022-09-16T22:18:23.626Z,0.70
2022-09-16T22:20:50.161Z,1.10
2022-09-16T22:23:16.541Z,0.70
2022-09-16T22:25:42.971Z,0.90
2022-09-16T22:28:09.429Z,0.88
2022-09-16T22:30:35.825Z,0.90
2022-09-16T22:33:02.223Z,0.75
2022-09-16T22:35:28.617Z,0.60
2022-09-16T22:37:54.998Z,0.60
2022-09-16T22:40:21.452Z,0.90
2022-09-16T22:42:47.912Z,1.17
2022-09-16T22:45:14.300Z,0.90
2022-09-16T22:47:40.692Z,0.52
2022-09-16T22:50:07.469Z,0.60
2022-09-16T22:52:33.993Z,0.65
2022-09-16T22:55:00.388Z,0.80
2022-09-16T22:57:26.765Z,0.55
2022-09-16T22:59:53.182Z,0.50
2022-09-16T23:02:19.617Z,0.98
2022-09-16T23:04:46.081Z,0.68
2022-09-16T23:07:13.332Z,0.73
2022-09-16T23:09:39.720Z,0.70
2022-09-16T23:12:06.295Z,0.70
2022-09-16T23:14:32.683Z,0.50
2022-09-16T23:16:59.176Z,0.60
2022-09-16T23:19:25.738Z,0.70
2022-09-16T23:21:52.134Z,0.57
2022-09-16T23:24:20.878Z,0.43
2022-09-16T23:26:48.019Z,0.63
2022-09-16T23:29:15.363Z,0.57
2022-09-16T23:31:44.346Z,0.60
2022-09-16T23:34:17.243Z,0.57
2022-09-16T23:36:44.028Z,1.00
2022-09-16T23:39:13.255Z,0.70
2022-09-16T23:41:39.835Z,0.35
2022-09-16T23:44:06.351Z,1.00
2022-09-16T23:46:33.361Z,0.68
2022-09-16T23:49:00.182Z,0.50
2022-09-16T23:51:28.606Z,0.65
2022-09-16T23:53:56.546Z,0.50
2022-09-16T23:56:23.046Z,0.40
2022-09-16T23:58:50.847Z,0.43
